Newlead Avra — V7IK7 — position and weather

sailwx.info

Track history (hours):
 
Tides and Currents Weather Stations Pressure Air Temp Water Temp Dewpoint Dewpoint Depression Visibility Wind Speed Wind Dir Waves Ship Positions

Newlead Avra

Last reported at 2018-Jun-22 12:00 UTC. Time now 2018-Jun-22 18:49 UTC.
Position N 14°06' W 077°18'.

Length 234 m; draft 6 m.

Type: Ship (hazmat cat C). MMSI: 538002394.

Wind from 100 at 22 knots

Barometer 1013.0 mb
Air temperature 29.0 ° C
Visibility: greater than 10.8 NM
Dewpoint 24.8 ° C
Water temperature 29.0 ° C

Date/timePositionNaut miles runAvg speedWind from/ knotsBaromVisibWave heightAir tempDewpointWater temp
2018-Jun-22 12:00N 14°06' W 077°18'9115.1 100 / 221013.010.8 29.024.829.0
2018-Jun-22 06:00N 15°24' W 076°30'10417.3 090 / 181016.0 5.4 29.027.630.0
2018-Jun-22 00:00N 16°54' W 075°36'21217.7 090 / 211015.010.8 28.026.629.0
2018-Jun-21 12:00N 20°06' W 074°00'8714.5 120 / 51016.010.8 29.026.229.0
2018-Jun-21 06:00N 21°30' W 074°24'12120.1 230 / 51015.0 5.4 27.025.628.0
2018-Jun-21 00:00N 23°30' W 074°36'20417.0 170 / 31015.010.8 28.023.730.0
2018-Jun-20 12:00N 26°54' W 074°48'11419.0 330 / 41015.010.8 26.021.528.0
2018-Jun-20 06:00N 28°48' W 074°54'10217.0 230 / 161015.0 5.4 26.024.628.0
2018-Jun-20 00:00N 30°30' W 074°54'21017.5 280 / 141015.010.8 26.021.528.0
2018-Jun-19 12:00N 34°00' W 074°54'10217.0 280 / 221014.010.8 28.023.728.0
2018-Jun-19 06:00N 35°42' W 074°54'10316.1 230 / 131015.0 5.4 37.035.830.0
2018-Jun-18 23:34N 36°59' W 076°20'113.3
2018-Jun-18 23:30N 36°58' W 076°20'3 6.2
2018-Jun-18 22:57N 36°55' W 076°20'0 0.0
2018-Jun-18 20:01N 36°55' W 076°20'0 0.1
2018-Jun-18 19:55N 36°55' W 076°20'0 0.0
2018-Jun-18 18:43N 36°55' W 076°20'0 0.0
2018-Jun-18 12:19N 36°55' W 076°20'0 0.0
2018-Jun-18 11:55N 36°55' W 076°20'0 0.0
2018-Jun-18 11:19N 36°55' W 076°20'0 0.0
2018-Jun-18 08:55N 36°55' W 076°20'0 0.0
2018-Jun-18 05:55N 36°55' W 076°20'0 0.0
2018-Jun-18 05:28N 36°55' W 076°20'0 0.0
2018-Jun-18 04:58N 36°55' W 076°20'0 0.0
2018-Jun-18 04:28N 36°55' W 076°20'0 0.0
2018-Jun-18 03:58N 36°55' W 076°20'0 0.0
2018-Jun-18 03:28N 36°55' W 076°20'0 0.0
2018-Jun-18 00:52N 36°55' W 076°20'0 0.0
2018-Jun-18 00:22N 36°55' W 076°20'0 0.0
2018-Jun-17 23:55N 36°55' W 076°20'0 0.0
2018-Jun-17 22:31N 36°55' W 076°20'0 0.0
2018-Jun-17 22:25N 36°55' W 076°20'0 0.0
2018-Jun-17 21:28N 36°55' W 076°20'0 0.0
2018-Jun-17 18:10N 36°55' W 076°20'0 0.0
2018-Jun-17 17:58N 36°55' W 076°20'0 0.0
2018-Jun-17 17:22N 36°55' W 076°20'0 0.0
2018-Jun-17 16:28N 36°55' W 076°20'0 0.0
2018-Jun-17 15:52N 36°55' W 076°20'0 0.0
2018-Jun-17 15:28N 36°55' W 076°20'0 0.0
2018-Jun-17 14:58N 36°55' W 076°20'0 0.0
2018-Jun-17 14:22N 36°55' W 076°20'0 0.0
2018-Jun-17 13:52N 36°55' W 076°20'0 0.0
2018-Jun-17 13:16N 36°55' W 076°20'0 0.0
2018-Jun-17 12:58N 36°55' W 076°20'0 0.0
2018-Jun-17 12:28N 36°55' W 076°20'0 0.0
2018-Jun-17 11:58N 36°55' W 076°20'0 0.0
2018-Jun-17 11:25N 36°55' W 076°20'0 0.0
2018-Jun-17 10:58N 36°55' W 076°20'0 0.0
2018-Jun-17 10:28N 36°55' W 076°20'1 1.4
2018-Jun-17 10:00N 36°55' W 076°20'3 6.7
2018-Jun-17 09:30N 36°58' W 076°20'11211.8
2018-Jun-17 00:00N 35°30' W 074°54'19816.5 120 / 51019.010.8 25.020.524.0
2018-Jun-16 12:00N 33°00' W 077°30'10918.2 080 / 51015.010.8 26.023.128.0
2018-Jun-16 06:00N 31°42' W 079°00'71 1.6 260 / 241016.0 5.4 26.024.627.0
2018-Jun-14 09:31N 31°34' W 080°23'0 9.6
2018-Jun-14 09:28N 31°35' W 080°23'4 9.4
2018-Jun-14 09:00N 31°39' W 080°21'7 9.4
2018-Jun-14 08:15N 31°46' W 080°19'3 9.5
2018-Jun-14 07:58N 31°48' W 080°21'510.1
2018-Jun-14 07:29N 31°51' W 080°26'510.4
2018-Jun-14 06:59N 31°53' W 080°31'612.2
2018-Jun-14 06:30N 31°56' W 080°38'510.9
2018-Jun-14 06:00N 31°58' W 080°43'715.0
2018-Jun-14 05:31N 32°02' W 080°51'713.1
2018-Jun-14 05:00N 32°04' W 080°58'4 8.8
2018-Jun-14 04:30N 32°05' W 081°03'3 6.6
2018-Jun-14 04:00N 32°06' W 081°07'2 4.7
2018-Jun-14 03:30N 32°08' W 081°08'0 0.3
2018-Jun-14 02:58N 32°08' W 081°08'0 0.0
2018-Jun-14 02:28N 32°08' W 081°08'0 0.0
2018-Jun-14 01:58N 32°08' W 081°08'0 0.0
2018-Jun-14 01:28N 32°08' W 081°08'0 0.0
2018-Jun-14 00:58N 32°08' W 081°08'0 0.0
2018-Jun-14 00:28N 32°08' W 081°08'0 0.0
2018-Jun-13 23:58N 32°08' W 081°08'0 0.0
2018-Jun-13 23:28N 32°08' W 081°08'0 0.0
2018-Jun-13 22:55N 32°08' W 081°08'0 0.0
2018-Jun-13 22:28N 32°08' W 081°08'0 0.0
2018-Jun-13 21:58N 32°08' W 081°08'0 0.0
2018-Jun-13 21:28N 32°08' W 081°08'0 0.0
2018-Jun-13 20:55N 32°08' W 081°08'0 0.0
2018-Jun-13 19:13N 32°08' W 081°08'0 0.0
2018-Jun-13 18:55N 32°08' W 081°08'0 0.0
2018-Jun-13 18:25N 32°08' W 081°08'0 0.0
2018-Jun-13 17:55N 32°08' W 081°08'0 0.0
2018-Jun-13 17:25N 32°08' W 081°08'0 0.0
2018-Jun-13 16:55N 32°08' W 081°08'0 0.0
2018-Jun-13 16:19N 32°08' W 081°08'0 0.0
2018-Jun-13 15:55N 32°08' W 081°08'0 0.0
2018-Jun-13 15:25N 32°08' W 081°08'0 0.0
2018-Jun-13 14:49N 32°08' W 081°08'0 0.0
2018-Jun-13 14:25N 32°08' W 081°08'0 0.0
2018-Jun-13 13:49N 32°08' W 081°08'0 0.0
2018-Jun-13 13:25N 32°08' W 081°08'0 0.0
2018-Jun-13 12:55N 32°08' W 081°08'0 0.0
2018-Jun-13 12:25N 32°08' W 081°08'0 0.0
2018-Jun-13 11:55N 32°08' W 081°08'0 0.0
2018-Jun-13 11:25N 32°08' W 081°08'0 0.0
2018-Jun-13 10:55N 32°08' W 081°08'0 0.0
2018-Jun-13 10:25N 32°08' W 081°08'0 0.0
2018-Jun-13 09:55N 32°08' W 081°08'0 0.0
2018-Jun-13 09:25N 32°08' W 081°08'0 0.0
2018-Jun-13 08:55N 32°08' W 081°08'0 0.0
2018-Jun-13 08:25N 32°08' W 081°08'0 0.0
2018-Jun-13 07:55N 32°08' W 081°08'0 0.0
2018-Jun-13 07:25N 32°08' W 081°08'0 0.0
2018-Jun-13 06:55N 32°08' W 081°08'0 0.0
2018-Jun-13 06:25N 32°08' W 081°08'0 0.0
2018-Jun-13 05:57N 32°08' W 081°08'0 0.0
2018-Jun-13 05:27N 32°08' W 081°08'0 0.0
2018-Jun-13 04:57N 32°08' W 081°08'0 0.0
2018-Jun-13 04:27N 32°08' W 081°08'0 0.0
2018-Jun-13 03:45N 32°08' W 081°08'0 0.0
2018-Jun-13 03:21N 32°08' W 081°08'0 0.0
2018-Jun-13 02:51N 32°08' W 081°08'0 0.0
2018-Jun-13 02:27N 32°08' W 081°08'0 0.0
2018-Jun-13 01:57N 32°08' W 081°08'0 0.0
2018-Jun-13 01:27N 32°08' W 081°08'0 0.0
2018-Jun-13 00:57N 32°08' W 081°08'0 0.0
2018-Jun-13 00:27N 32°08' W 081°08'0 0.0
2018-Jun-12 23:51N 32°08' W 081°08'0 0.0
2018-Jun-12 23:27N 32°08' W 081°08'0 0.0
2018-Jun-12 22:57N 32°08' W 081°08'0 0.0
2018-Jun-12 22:27N 32°08' W 081°08'0 0.0
2018-Jun-12 21:57N 32°08' W 081°08'0 0.0
2018-Jun-12 21:27N 32°08' W 081°08'0 0.0
2018-Jun-12 20:57N 32°08' W 081°08'0 0.0
2018-Jun-12 20:27N 32°08' W 081°08'0 0.0
2018-Jun-12 19:57N 32°08' W 081°08'0 0.0
2018-Jun-12 19:27N 32°08' W 081°08'0 0.0
2018-Jun-12 18:57N 32°08' W 081°08'0 0.0
2018-Jun-12 18:21N 32°08' W 081°08'0 0.0
2018-Jun-12 17:57N 32°08' W 081°08'0 0.0
2018-Jun-12 17:27N 32°08' W 081°08'0 0.0
2018-Jun-12 16:57N 32°08' W 081°08'0 0.0
2018-Jun-12 16:27N 32°08' W 081°08'0 0.0
2018-Jun-12 15:57N 32°08' W 081°08'0 0.0
2018-Jun-12 15:27N 32°08' W 081°08'0 0.0
2018-Jun-12 14:57N 32°08' W 081°08'0 0.0
2018-Jun-12 14:27N 32°08' W 081°08'0 0.0
2018-Jun-12 13:57N 32°08' W 081°08'0 0.0
2018-Jun-12 13:27N 32°08' W 081°08'0 0.0
2018-Jun-12 12:57N 32°08' W 081°08'0 0.1
2018-Jun-12 12:30N 32°08' W 081°08'1 2.9
2018-Jun-12 12:00N 32°07' W 081°07'  
Track history (hours):
 
Tides and Currents Weather Stations Pressure Air Temp Water Temp Dewpoint Dewpoint Depression Visibility Wind Speed Wind Dir Waves Ship Positions

Newlead Avra

Last reported at 2018-Jun-22 12:00 UTC. Time now 2018-Jun-22 18:49 UTC.
Position N 14°06' W 077°18'.

Length 234 m; draft 6 m.

Type: Ship (hazmat cat C). MMSI: 538002394.

Wind from 100 at 22 knots

Barometer 1013.0 mb
Air temperature 29.0 ° C
Visibility: greater than 10.8 NM
Dewpoint 24.8 ° C
Water temperature 29.0 ° C

Date/timePositionNaut miles runAvg speedWind from/ knotsBaromVisibWave heightAir tempDewpointWater temp
2018-Jun-22 12:00N 14°06' W 077°18'9115.1 100 / 221013.010.8 29.024.829.0
2018-Jun-22 06:00N 15°24' W 076°30'10417.3 090 / 181016.0 5.4 29.027.630.0
2018-Jun-22 00:00N 16°54' W 075°36'21217.7 090 / 211015.010.8 28.026.629.0
2018-Jun-21 12:00N 20°06' W 074°00'8714.5 120 / 51016.010.8 29.026.229.0
2018-Jun-21 06:00N 21°30' W 074°24'12120.1 230 / 51015.0 5.4 27.025.628.0
2018-Jun-21 00:00N 23°30' W 074°36'20417.0 170 / 31015.010.8 28.023.730.0
2018-Jun-20 12:00N 26°54' W 074°48'11419.0 330 / 41015.010.8 26.021.528.0
2018-Jun-20 06:00N 28°48' W 074°54'10217.0 230 / 161015.0 5.4 26.024.628.0
2018-Jun-20 00:00N 30°30' W 074°54'21017.5 280 / 141015.010.8 26.021.528.0
2018-Jun-19 12:00N 34°00' W 074°54'10217.0 280 / 221014.010.8 28.023.728.0
2018-Jun-19 06:00N 35°42' W 074°54'10316.1 230 / 131015.0 5.4 37.035.830.0
2018-Jun-18 23:34N 36°59' W 076°20'113.3
2018-Jun-18 23:30N 36°58' W 076°20'3 6.2
2018-Jun-18 22:57N 36°55' W 076°20'0 0.0
2018-Jun-18 20:01N 36°55' W 076°20'0 0.1
2018-Jun-18 19:55N 36°55' W 076°20'0 0.0
2018-Jun-18 18:43N 36°55' W 076°20'0 0.0
2018-Jun-18 12:19N 36°55' W 076°20'0 0.0
2018-Jun-18 11:55N 36°55' W 076°20'0 0.0
2018-Jun-18 11:19N 36°55' W 076°20'0 0.0
2018-Jun-18 08:55N 36°55' W 076°20'0 0.0
2018-Jun-18 05:55N 36°55' W 076°20'0 0.0
2018-Jun-18 05:28N 36°55' W 076°20'0 0.0
2018-Jun-18 04:58N 36°55' W 076°20'0 0.0
2018-Jun-18 04:28N 36°55' W 076°20'0 0.0
2018-Jun-18 03:58N 36°55' W 076°20'0 0.0
2018-Jun-18 03:28N 36°55' W 076°20'0 0.0
2018-Jun-18 00:52N 36°55' W 076°20'0 0.0
2018-Jun-18 00:22N 36°55' W 076°20'0 0.0
2018-Jun-17 23:55N 36°55' W 076°20'0 0.0
2018-Jun-17 22:31N 36°55' W 076°20'0 0.0
2018-Jun-17 22:25N 36°55' W 076°20'0 0.0
2018-Jun-17 21:28N 36°55' W 076°20'0 0.0
2018-Jun-17 18:10N 36°55' W 076°20'0 0.0
2018-Jun-17 17:58N 36°55' W 076°20'0 0.0
2018-Jun-17 17:22N 36°55' W 076°20'0 0.0
2018-Jun-17 16:28N 36°55' W 076°20'0 0.0
2018-Jun-17 15:52N 36°55' W 076°20'0 0.0
2018-Jun-17 15:28N 36°55' W 076°20'0 0.0
2018-Jun-17 14:58N 36°55' W 076°20'0 0.0
2018-Jun-17 14:22N 36°55' W 076°20'0 0.0
2018-Jun-17 13:52N 36°55' W 076°20'0 0.0
2018-Jun-17 13:16N 36°55' W 076°20'0 0.0
2018-Jun-17 12:58N 36°55' W 076°20'0 0.0
2018-Jun-17 12:28N 36°55' W 076°20'0 0.0
2018-Jun-17 11:58N 36°55' W 076°20'0 0.0
2018-Jun-17 11:25N 36°55' W 076°20'0 0.0
2018-Jun-17 10:58N 36°55' W 076°20'0 0.0
2018-Jun-17 10:28N 36°55' W 076°20'1 1.4
2018-Jun-17 10:00N 36°55' W 076°20'3 6.7
2018-Jun-17 09:30N 36°58' W 076°20'11211.8
2018-Jun-17 00:00N 35°30' W 074°54'19816.5 120 / 51019.010.8 25.020.524.0
2018-Jun-16 12:00N 33°00' W 077°30'10918.2 080 / 51015.010.8 26.023.128.0
2018-Jun-16 06:00N 31°42' W 079°00'71 1.6 260 / 241016.0 5.4 26.024.627.0
2018-Jun-14 09:31N 31°34' W 080°23'0 9.6
2018-Jun-14 09:28N 31°35' W 080°23'4 9.4
2018-Jun-14 09:00N 31°39' W 080°21'7 9.4
2018-Jun-14 08:15N 31°46' W 080°19'3 9.5
2018-Jun-14 07:58N 31°48' W 080°21'510.1
2018-Jun-14 07:29N 31°51' W 080°26'510.4
2018-Jun-14 06:59N 31°53' W 080°31'612.2
2018-Jun-14 06:30N 31°56' W 080°38'510.9
2018-Jun-14 06:00N 31°58' W 080°43'715.0
2018-Jun-14 05:31N 32°02' W 080°51'713.1
2018-Jun-14 05:00N 32°04' W 080°58'4 8.8
2018-Jun-14 04:30N 32°05' W 081°03'3 6.6
2018-Jun-14 04:00N 32°06' W 081°07'2 4.7
2018-Jun-14 03:30N 32°08' W 081°08'0 0.3
2018-Jun-14 02:58N 32°08' W 081°08'0 0.0
2018-Jun-14 02:28N 32°08' W 081°08'0 0.0
2018-Jun-14 01:58N 32°08' W 081°08'0 0.0
2018-Jun-14 01:28N 32°08' W 081°08'0 0.0
2018-Jun-14 00:58N 32°08' W 081°08'0 0.0
2018-Jun-14 00:28N 32°08' W 081°08'0 0.0
2018-Jun-13 23:58N 32°08' W 081°08'0 0.0
2018-Jun-13 23:28N 32°08' W 081°08'0 0.0
2018-Jun-13 22:55N 32°08' W 081°08'0 0.0
2018-Jun-13 22:28N 32°08' W 081°08'0 0.0
2018-Jun-13 21:58N 32°08' W 081°08'0 0.0
2018-Jun-13 21:28N 32°08' W 081°08'0 0.0
2018-Jun-13 20:55N 32°08' W 081°08'0 0.0
2018-Jun-13 19:13N 32°08' W 081°08'0 0.0
2018-Jun-13 18:55N 32°08' W 081°08'0 0.0
2018-Jun-13 18:25N 32°08' W 081°08'0 0.0
2018-Jun-13 17:55N 32°08' W 081°08'0 0.0
2018-Jun-13 17:25N 32°08' W 081°08'0 0.0
2018-Jun-13 16:55N 32°08' W 081°08'0 0.0
2018-Jun-13 16:19N 32°08' W 081°08'0 0.0
2018-Jun-13 15:55N 32°08' W 081°08'0 0.0
2018-Jun-13 15:25N 32°08' W 081°08'0 0.0
2018-Jun-13 14:49N 32°08' W 081°08'0 0.0
2018-Jun-13 14:25N 32°08' W 081°08'0 0.0
2018-Jun-13 13:49N 32°08' W 081°08'0 0.0
2018-Jun-13 13:25N 32°08' W 081°08'0 0.0
2018-Jun-13 12:55N 32°08' W 081°08'0 0.0
2018-Jun-13 12:25N 32°08' W 081°08'0 0.0
2018-Jun-13 11:55N 32°08' W 081°08'0 0.0
2018-Jun-13 11:25N 32°08' W 081°08'0 0.0
2018-Jun-13 10:55N 32°08' W 081°08'0 0.0
2018-Jun-13 10:25N 32°08' W 081°08'0 0.0
2018-Jun-13 09:55N 32°08' W 081°08'0 0.0
2018-Jun-13 09:25N 32°08' W 081°08'0 0.0
2018-Jun-13 08:55N 32°08' W 081°08'0 0.0
2018-Jun-13 08:25N 32°08' W 081°08'0 0.0
2018-Jun-13 07:55N 32°08' W 081°08'0 0.0
2018-Jun-13 07:25N 32°08' W 081°08'0 0.0
2018-Jun-13 06:55N 32°08' W 081°08'0 0.0
2018-Jun-13 06:25N 32°08' W 081°08'0 0.0
2018-Jun-13 05:57N 32°08' W 081°08'0 0.0
2018-Jun-13 05:27N 32°08' W 081°08'0 0.0
2018-Jun-13 04:57N 32°08' W 081°08'0 0.0
2018-Jun-13 04:27N 32°08' W 081°08'0 0.0
2018-Jun-13 03:45N 32°08' W 081°08'0 0.0
2018-Jun-13 03:21N 32°08' W 081°08'0 0.0
2018-Jun-13 02:51N 32°08' W 081°08'0 0.0
2018-Jun-13 02:27N 32°08' W 081°08'0 0.0
2018-Jun-13 01:57N 32°08' W 081°08'0 0.0
2018-Jun-13 01:27N 32°08' W 081°08'0 0.0
2018-Jun-13 00:57N 32°08' W 081°08'0 0.0
2018-Jun-13 00:27N 32°08' W 081°08'0 0.0
2018-Jun-12 23:51N 32°08' W 081°08'0 0.0
2018-Jun-12 23:27N 32°08' W 081°08'0 0.0
2018-Jun-12 22:57N 32°08' W 081°08'0 0.0
2018-Jun-12 22:27N 32°08' W 081°08'0 0.0
2018-Jun-12 21:57N 32°08' W 081°08'0 0.0
2018-Jun-12 21:27N 32°08' W 081°08'0 0.0
2018-Jun-12 20:57N 32°08' W 081°08'0 0.0
2018-Jun-12 20:27N 32°08' W 081°08'0 0.0
2018-Jun-12 19:57N 32°08' W 081°08'0 0.0
2018-Jun-12 19:27N 32°08' W 081°08'0 0.0
2018-Jun-12 18:57N 32°08' W 081°08'0 0.0
2018-Jun-12 18:21N 32°08' W 081°08'0 0.0
2018-Jun-12 17:57N 32°08' W 081°08'0 0.0
2018-Jun-12 17:27N 32°08' W 081°08'0 0.0
2018-Jun-12 16:57N 32°08' W 081°08'0 0.0
2018-Jun-12 16:27N 32°08' W 081°08'0 0.0
2018-Jun-12 15:57N 32°08' W 081°08'0 0.0
2018-Jun-12 15:27N 32°08' W 081°08'0 0.0
2018-Jun-12 14:57N 32°08' W 081°08'0 0.0
2018-Jun-12 14:27N 32°08' W 081°08'0 0.0
2018-Jun-12 13:57N 32°08' W 081°08'0 0.0
2018-Jun-12 13:27N 32°08' W 081°08'0 0.0
2018-Jun-12 12:57N 32°08' W 081°08'0 0.1
2018-Jun-12 12:30N 32°08' W 081°08'1 2.9
2018-Jun-12 12:00N 32°07' W 081°07'  

Dump ship's entire track history